Wetterdaten: Woche 06.03.06 - 12.03.06 (KW10)
Datum Zeit Temperatur Luftfeuchte Luftdruck Niederschlag Wind Richtung Sonne Solar Taupunkt Windchill
06.03.2006 00:00 -2.4 C 79 % 1016.9 hPa 0.0 l/m 0.5 km/h (0 Bft) S-SO 0.00 h 0 W/m -5.5 C -2.5 C
06.03.2006 01:00 -2.6 C 80 % 1016.8 hPa 0.0 l/m 2.4 km/h (1 Bft) S-SO 0.00 h 0 W/m -5.5 C -3.4 C
06.03.2006 02:00 -2.6 C 82 % 1016.4 hPa 0.0 l/m 3.6 km/h (1 Bft) S-SO 0.00 h 0 W/m -5.3 C -3.8 C
06.03.2006 03:00 -2.5 C 84 % 1015.8 hPa 0.0 l/m 0.7 km/h (0 Bft) S-SO 0.00 h 0 W/m -4.8 C -2.6 C
06.03.2006 04:00 -2.5 C 85 % 1016.5 hPa 0.0 l/m 0.8 km/h (0 Bft) S 0.00 h 0 W/m -4.6 C -2.5 C
06.03.2006 05:00 -2.4 C 86 % 1016.9 hPa 0.0 l/m 1.9 km/h (1 Bft) S-SO 0.00 h 0 W/m -4.3 C -2.8 C
06.03.2006 06:00 -2.3 C 86 % 1016.8 hPa 0.0 l/m 5.0 km/h (1 Bft) S-SO 0.00 h 0 W/m -4.3 C -4.1 C
06.03.2006 07:00 -2.4 C 83 % 1016.9 hPa 0.0 l/m 4.0 km/h (1 Bft) S-SO 0.00 h 27 W/m -4.8 C -3.7 C
06.03.2006 08:00 -0.3 C 79 % 1017.6 hPa 0.0 l/m 0.8 km/h (0 Bft) N-NW 0.07 h 106 W/m -3.6 C -0.4 C
06.03.2006 09:00 1.8 C 60 % 1017.3 hPa 0.0 l/m 4.3 km/h (1 Bft) NW 0.32 h 254 W/m -5.2 C 0.8 C
06.03.2006 10:00 1.7 C 57 % 1018.0 hPa 0.0 l/m 19.3 km/h (3 Bft) NW 0.67 h 390 W/m -6.0 C -3.0 C
06.03.2006 11:00 3.2 C 52 % 1018.1 hPa 0.0 l/m 17.6 km/h (3 Bft) NW 1.00 h 572 W/m -5.7 C -0.8 C
06.03.2006 12:00 4.3 C 45 % 1017.5 hPa 0.0 l/m 10.9 km/h (2 Bft) NW 0.90 h 511 W/m -6.5 C 1.8 C
06.03.2006 13:00 6.3 C 44 % 1016.6 hPa 0.0 l/m 8.9 km/h (2 Bft) W 0.65 h 478 W/m -5.2 C 4.6 C
06.03.2006 14:00 5.3 C 46 % 1016.8 hPa 0.0 l/m 8.0 km/h (2 Bft) W 0.45 h 285 W/m -5.4 C 3.7 C
06.03.2006 15:00 3.9 C 54 % 1017.0 hPa 0.0 l/m 10.4 km/h (2 Bft) S-SO 0.28 h 209 W/m -4.4 C 1.6 C
06.03.2006 16:00 2.0 C 66 % 1017.2 hPa 0.0 l/m 13.0 km/h (3 Bft) NW 0.00 h 120 W/m -3.6 C -1.3 C
06.03.2006 17:00 0.4 C 81 % 1017.5 hPa 0.0 l/m 5.0 km/h (1 Bft) S-SO 0.00 h 52 W/m -2.4 C -1.1 C
06.03.2006 18:00 -0.1 C 86 % 1018.4 hPa 0.0 l/m 1.3 km/h (1 Bft) S-SO 0.00 h 8 W/m -2.1 C -0.3 C
06.03.2006 19:00 -0.2 C 88 % 1018.6 hPa 0.0 l/m 8.7 km/h (2 Bft) S-SO 0.00 h 0 W/m -1.8 C -3.0 C
06.03.2006 20:00 -0.0 C 88 % 1018.6 hPa 0.0 l/m 5.2 km/h (1 Bft) S-SO 0.00 h 0 W/m -1.7 C -1.7 C
06.03.2006 21:00 -0.0 C 87 % 1019.3 hPa 0.0 l/m 11.9 km/h (2 Bft) NW 0.00 h 0 W/m -1.9 C -3.5 C
06.03.2006 22:00 -0.8 C 86 % 1019.7 hPa 0.0 l/m 8.1 km/h (2 Bft) NW 0.00 h 0 W/m -2.8 C -3.3 C
06.03.2006 23:00 -0.2 C 83 % 1020.2 hPa 0.0 l/m 16.5 km/h (3 Bft) NW 0.00 h 0 W/m -2.6 C -4.8 C
07.03.2006 00:00 -0.5 C 86 % 1020.7 hPa 0.6 l/m 7.0 km/h (2 Bft) NW 0.00 h 0 W/m -2.6 C -2.3 C
07.03.2006 01:00 -1.6 C 88 % 1021.4 hPa 0.3 l/m 0.0 km/h (0 Bft) N 0.00 h 0 W/m -3.3 C -1.6 C
07.03.2006 02:00 -1.5 C 89 % 1021.9 hPa 0.3 l/m 3.2 km/h (1 Bft) NW 0.00 h 0 W/m -3.0 C -2.5 C
07.03.2006 03:00 -0.9 C 84 % 1021.8 hPa 0.0 l/m 17.0 km/h (3 Bft) NW 0.00 h 0 W/m -3.3 C -5.7 C
07.03.2006 04:00 -1.5 C 77 % 1021.9 hPa 0.0 l/m 19.9 km/h (4 Bft) NW 0.00 h 0 W/m -5.0 C -7.1 C
07.03.2006 05:00 -1.4 C 77 % 1022.1 hPa 0.0 l/m 16.7 km/h (3 Bft) NW 0.00 h 0 W/m -4.8 C -6.3 C
07.03.2006 06:00 -1.6 C 77 % 1022.3 hPa 0.0 l/m 10.2 km/h (2 Bft) NW 0.00 h 0 W/m -5.0 C -5.1 C
07.03.2006 07:00 -1.3 C 77 % 1022.9 hPa 0.0 l/m 2.4 km/h (1 Bft) SW 0.00 h 20 W/m -4.8 C -1.8 C
07.03.2006 08:00 0.2 C 69 % 1023.7 hPa 0.3 l/m 3.0 km/h (1 Bft) NW 0.03 h 116 W/m -4.8 C -0.5 C
07.03.2006 09:00 1.4 C 60 % 1023.6 hPa 0.0 l/m 11.5 km/h (2 Bft) NW 0.53 h 232 W/m -5.5 C -1.6 C
07.03.2006 10:00 2.2 C 57 % 1023.5 hPa 0.0 l/m 16.4 km/h (3 Bft) NW 0.57 h 370 W/m -5.5 C -1.9 C
07.03.2006 11:00 3.3 C 52 % 1023.3 hPa 0.0 l/m 21.3 km/h (4 Bft) NW 0.83 h 583 W/m -5.7 C -1.2 C
07.03.2006 12:00 3.0 C 52 % 1023.3 hPa 0.0 l/m 25.7 km/h (4 Bft) NW 1.00 h 726 W/m -5.7 C -2.0 C
07.03.2006 13:00 3.6 C 50 % 1022.6 hPa 0.0 l/m 21.6 km/h (4 Bft) NW 1.00 h 725 W/m -5.9 C -0.9 C
07.03.2006 14:00 2.9 C 46 % 1022.2 hPa 0.0 l/m 19.1 km/h (3 Bft) NW 1.00 h 634 W/m -7.5 C -1.4 C
07.03.2006 15:00 2.9 C 45 % 1021.3 hPa 0.0 l/m 15.8 km/h (3 Bft) NW 0.90 h 448 W/m -7.8 C -0.9 C
07.03.2006 16:00 2.8 C 45 % 1021.3 hPa 0.0 l/m 11.5 km/h (2 Bft) NW 0.58 h 208 W/m -8.0 C -0.2 C
07.03.2006 17:00 1.8 C 52 % 1021.4 hPa 0.0 l/m 4.2 km/h (1 Bft) NW 0.00 h 58 W/m -6.9 C 0.7 C
07.03.2006 18:00 0.2 C 62 % 1021.7 hPa 0.0 l/m 3.3 km/h (1 Bft) SO 0.00 h 9 W/m -6.2 C -0.6 C
07.03.2006 19:00 -1.0 C 67 % 1021.1 hPa 0.0 l/m 7.1 km/h (2 Bft) SO 0.00 h 0 W/m -6.3 C -3.2 C
07.03.2006 20:00 -2.5 C 71 % 1021.0 hPa 0.0 l/m 5.4 km/h (1 Bft) SO 0.00 h 0 W/m -7.0 C -4.4 C
07.03.2006 21:00 -2.8 C 76 % 1020.3 hPa 0.0 l/m 3.3 km/h (1 Bft) SO 0.00 h 0 W/m -6.4 C -3.6 C
07.03.2006 22:00 -4.1 C 79 % 1020.2 hPa 0.0 l/m 2.2 km/h (1 Bft) SO 0.00 h 0 W/m -7.2 C -4.7 C
07.03.2006 23:00 -4.9 C 83 % 1019.9 hPa 0.0 l/m 1.2 km/h (1 Bft) SO 0.00 h 0 W/m -7.2 C -4.9 C
08.03.2006 00:00 -6.1 C 84 % 1019.5 hPa 0.0 l/m 0.8 km/h (0 Bft) SO 0.00 h 0 W/m -8.3 C -6.1 C
08.03.2006 01:00 -6.0 C 86 % 1018.8 hPa 0.0 l/m 0.9 km/h (0 Bft) SO 0.00 h 0 W/m -8.0 C -6.1 C
08.03.2006 02:00 -5.8 C 86 % 1018.4 hPa 0.0 l/m 0.0 km/h (0 Bft) N 0.00 h 0 W/m -7.8 C -5.8 C
08.03.2006 03:00 -5.4 C 85 % 1018.0 hPa 0.0 l/m 0.3 km/h (0 Bft) O-SO 0.00 h 0 W/m -7.5 C -5.4 C
08.03.2006 04:00 -4.7 C 83 % 1017.2 hPa 0.0 l/m 0.2 km/h (0 Bft) O-SO 0.00 h 0 W/m -7.2 C -4.7 C
08.03.2006 05:00 -4.5 C 80 % 1017.2 hPa 0.0 l/m 0.6 km/h (0 Bft) S-SO 0.00 h 0 W/m -7.4 C -4.6 C
08.03.2006 06:00 -3.9 C 80 % 1016.6 hPa 0.0 l/m 0.0 km/h (0 Bft) N 0.00 h 0 W/m -6.8 C -3.9 C
08.03.2006 07:00 -3.8 C 81 % 1016.0 hPa 0.0 l/m 0.3 km/h (0 Bft) W 0.00 h 26 W/m -6.6 C -3.8 C
08.03.2006 08:00 -3.2 C 79 % 1015.9 hPa 0.0 l/m 0.2 km/h (0 Bft) W 0.00 h 86 W/m -6.2 C -3.2 C
08.03.2006 09:00 -2.7 C 79 % 1015.7 hPa 0.0 l/m 1.7 km/h (1 Bft) NW 0.00 h 141 W/m -5.8 C -2.7 C
08.03.2006 10:00 -2.2 C 80 % 1014.8 hPa 0.3 l/m 0.3 km/h (0 Bft) NW 0.00 h 142 W/m -5.2 C -2.2 C
08.03.2006 11:00 -1.4 C 84 % 1014.1 hPa 0.6 l/m 0.2 km/h (0 Bft) NW 0.00 h 155 W/m -3.8 C -1.4 C
08.03.2006 12:00 -0.6 C 86 % 1013.5 hPa 0.6 l/m 0.7 km/h (0 Bft) NW 0.00 h 135 W/m -2.6 C -0.6 C
08.03.2006 13:00 -0.2 C 88 % 1012.5 hPa 1.6 l/m 1.1 km/h (0 Bft) NW 0.00 h 156 W/m -2.0 C -0.4 C
08.03.2006 14:00 0.7 C 90 % 1011.4 hPa 2.3 l/m 0.0 km/h (0 Bft) N 0.00 h 145 W/m -0.8 C 0.7 C
08.03.2006 15:00 1.0 C 93 % 1010.4 hPa 2.3 l/m 0.1 km/h (0 Bft) N 0.00 h 124 W/m -0.1 C 1.0 C
08.03.2006 16:00 1.1 C 95 % 1009.7 hPa 2.9 l/m 0.0 km/h (0 Bft) N 0.00 h 56 W/m 0.5 C 1.1 C
08.03.2006 17:00 1.2 C 98 % 1009.0 hPa 3.9 l/m 0.1 km/h (0 Bft) N 0.00 h 15 W/m 0.9 C 1.2 C
08.03.2006 18:00 1.3 C 99 % 1008.2 hPa 0.6 l/m 0.1 km/h (0 Bft) N 0.00 h 3 W/m 1.1 C 1.3 C
08.03.2006 19:00 2.4 C 97 % 1007.2 hPa 1.0 l/m 0.2 km/h (0 Bft) N 0.00 h 0 W/m 2.0 C 2.4 C
08.03.2006 20:00 1.6 C 100 % 1006.0 hPa 0.6 l/m 0.0 km/h (0 Bft) N 0.00 h 0 W/m 1.6 C 1.6 C
08.03.2006 21:00 1.9 C 100 % 1005.4 hPa 2.6 l/m 2.8 km/h (1 Bft) SO 0.00 h 0 W/m 1.9 C 1.1 C
08.03.2006 22:00 2.6 C 99 % 1004.7 hPa 2.9 l/m 3.4 km/h (1 Bft) S-SO 0.00 h 0 W/m 2.6 C 1.8 C
08.03.2006 23:00 4.8 C 99 % 1003.6 hPa 0.6 l/m 7.4 km/h (2 Bft) S-SO 0.00 h 0 W/m 4.7 C 3.3 C
09.03.2006 00:00 5.2 C 100 % 1003.3 hPa 1.6 l/m 4.7 km/h (1 Bft) S-SW 0.00 h 0 W/m 5.2 C 4.2 C
09.03.2006 01:00 5.3 C 100 % 1002.6 hPa 1.0 l/m 8.5 km/h (2 Bft) S 0.00 h 0 W/m 5.3 C 3.5 C
09.03.2006 02:00 5.2 C 100 % 1002.2 hPa 1.6 l/m 1.5 km/h (1 Bft) S-SO 0.00 h 0 W/m 5.2 C 5.1 C
09.03.2006 03:00 5.9 C 100 % 1002.1 hPa 1.6 l/m 13.5 km/h (3 Bft) NW 0.00 h 0 W/m 5.9 C 3.6 C
09.03.2006 04:00 6.6 C 95 % 1002.0 hPa 1.0 l/m 25.5 km/h (4 Bft) NW 0.00 h 0 W/m 5.9 C 2.6 C
09.03.2006 05:00 6.6 C 89 % 1002.7 hPa 0.6 l/m 20.5 km/h (4 Bft) NW 0.00 h 0 W/m 5.0 C 3.1 C
09.03.2006 06:00 6.7 C 88 % 1003.5 hPa 1.0 l/m 22.4 km/h (4 Bft) NW 0.00 h 2 W/m 4.8 C 3.0 C
09.03.2006 07:00 6.5 C 90 % 1004.6 hPa 1.3 l/m 14.7 km/h (3 Bft) NW 0.00 h 13 W/m 4.9 C 3.9 C
09.03.2006 08:00 7.0 C 87 % 1005.3 hPa 0.6 l/m 18.9 km/h (3 Bft) NW 0.30 h 131 W/m 5.0 C 3.9 C
09.03.2006 09:00 7.4 C 78 % 1006.1 hPa 0.0 l/m 14.9 km/h (3 Bft) NW 0.03 h 97 W/m 3.7 C 4.9 C
09.03.2006 10:00 7.3 C 76 % 1006.5 hPa 0.0 l/m 17.2 km/h (3 Bft) W-NW 0.00 h 118 W/m 3.4 C 4.4 C
09.03.2006 11:00 7.9 C 71 % 1007.1 hPa 0.0 l/m 18.3 km/h (3 Bft) NW 0.00 h 256 W/m 3.0 C 5.0 C
09.03.2006 12:00 9.1 C 58 % 1006.9 hPa 0.0 l/m 25.1 km/h (4 Bft) NW 0.00 h 262 W/m 1.1 C 5.8 C
09.03.2006 13:00 10.0 C 50 % 1006.8 hPa 0.0 l/m 25.4 km/h (4 Bft) NW 0.70 h 488 W/m 0.1 C 8.7 C
09.03.2006 14:00 10.2 C 47 % 1006.3 hPa 0.0 l/m 28.0 km/h (4 Bft) NW 0.87 h 459 W/m -0.5 C 9.7 C
09.03.2006 15:00 10.3 C 47 % 1005.7 hPa 0.0 l/m 29.0 km/h (5 Bft) NW 0.73 h 351 W/m -0.5 C 9.4 C
09.03.2006 16:00 9.7 C 47 % 1005.8 hPa 0.0 l/m 26.0 km/h (4 Bft) NW 0.22 h 153 W/m -1.2 C 6.5 C
09.03.2006 17:00 8.9 C 50 % 1005.9 hPa 0.0 l/m 19.3 km/h (3 Bft) NW 0.00 h 56 W/m -0.8 C 6.1 C
09.03.2006 18:00 7.8 C 57 % 1006.0 hPa 0.0 l/m 16.5 km/h (3 Bft) NW 0.00 h 9 W/m -0.1 C 5.1 C
09.03.2006 19:00 6.6 C 67 % 1006.2 hPa 0.0 l/m 11.6 km/h (2 Bft) NW 0.00 h 0 W/m 1.0 C 4.6 C
09.03.2006 20:00 5.6 C 80 % 1006.3 hPa 0.3 l/m 2.4 km/h (1 Bft) SO 0.00 h 0 W/m 2.4 C 5.0 C
09.03.2006 21:00 5.1 C 87 % 1006.0 hPa 0.0 l/m 3.6 km/h (1 Bft) SO 0.00 h 0 W/m 3.0 C 4.5 C
09.03.2006 22:00 4.4 C 90 % 1006.4 hPa 0.0 l/m 14.6 km/h (3 Bft) NW 0.00 h 0 W/m 2.8 C 2.2 C
09.03.2006 23:00 4.5 C 90 % 1007.3 hPa 0.0 l/m 37.1 km/h (5 Bft) NW 0.00 h 0 W/m 3.0 C -1.1 C
10.03.2006 00:00 5.8 C 85 % 1008.3 hPa 1.0 l/m 35.4 km/h (5 Bft) NW 0.00 h 0 W/m 3.5 C 0.8 C
10.03.2006 01:00 5.3 C 83 % 1009.3 hPa 1.0 l/m 29.4 km/h (5 Bft) NW 0.00 h 0 W/m 2.6 C 0.5 C
10.03.2006 02:00 4.2 C 86 % 1009.7 hPa 0.3 l/m 18.0 km/h (3 Bft) NW 0.00 h 0 W/m 2.1 C 0.4 C
10.03.2006 03:00 4.3 C 81 % 1009.5 hPa 0.0 l/m 14.2 km/h (3 Bft) NW 0.00 h 0 W/m 1.3 C 1.6 C
10.03.2006 04:00 4.5 C 79 % 1009.5 hPa 0.3 l/m 11.2 km/h (2 Bft) NW 0.00 h 0 W/m 1.2 C 2.0 C
10.03.2006 05:00 4.5 C 77 % 1009.6 hPa 0.0 l/m 15.2 km/h (3 Bft) NW 0.00 h 0 W/m 0.7 C 1.2 C
10.03.2006 06:00 4.6 C 69 % 1009.6 hPa 0.0 l/m 21.1 km/h (4 Bft) NW 0.00 h 5 W/m -0.7 C 0.5 C
10.03.2006 07:00 4.3 C 70 % 1009.6 hPa 0.0 l/m 7.9 km/h (2 Bft) NW 0.37 h 59 W/m -0.8 C 2.6 C
10.03.2006 08:00 5.1 C 60 % 1008.9 hPa 0.0 l/m 13.2 km/h (3 Bft) NW 0.13 h 129 W/m -2.1 C 2.5 C
10.03.2006 09:00 6.3 C 52 % 1008.3 hPa 0.0 l/m 14.7 km/h (3 Bft) NW 0.10 h 239 W/m -2.8 C 3.5 C
10.03.2006 10:00 6.7 C 49 % 1007.2 hPa 0.0 l/m 22.9 km/h (4 Bft) NW 0.27 h 269 W/m -3.4 C 3.0 C
10.03.2006 11:00 6.5 C 54 % 1007.3 hPa 0.0 l/m 21.6 km/h (4 Bft) NW 0.47 h 387 W/m -2.3 C 2.9 C
10.03.2006 12:00 4.3 C 76 % 1007.6 hPa 1.0 l/m 27.5 km/h (4 Bft) NW 0.43 h 347 W/m 0.3 C -0.5 C
10.03.2006 13:00 5.6 C 68 % 1006.4 hPa 0.6 l/m 17.3 km/h (3 Bft) NW 0.20 h 265 W/m 0.3 C 2.5 C
10.03.2006 14:00 3.4 C 82 % 1006.7 hPa 0.3 l/m 31.2 km/h (5 Bft) NW 0.50 h 339 W/m 0.6 C -2.1 C
10.03.2006 15:00 3.1 C 80 % 1006.7 hPa 0.3 l/m 20.7 km/h (4 Bft) NW 0.00 h 135 W/m -0.0 C -1.2 C
10.03.2006 16:00 3.4 C 77 % 1006.7 hPa 0.0 l/m 13.4 km/h (3 Bft) NW 0.47 h 216 W/m -0.2 C 0.2 C
10.03.2006 17:00 3.7 C 74 % 1006.6 hPa 0.0 l/m 7.9 km/h (2 Bft) NW 0.50 h 88 W/m -0.6 C 2.0 C
10.03.2006 18:00 3.1 C 82 % 1006.8 hPa 0.3 l/m 3.2 km/h (1 Bft) NW 0.00 h 5 W/m 0.3 C 2.3 C
10.03.2006 19:00 1.9 C 87 % 1007.9 hPa 0.3 l/m 10.7 km/h (2 Bft) NW 0.00 h 0 W/m 0.0 C -0.8 C
10.03.2006 20:00 1.2 C 90 % 1007.0 hPa 0.0 l/m 2.1 km/h (1 Bft) S-SO 0.00 h 0 W/m -0.4 C 0.7 C
10.03.2006 21:00 1.4 C 92 % 1006.9 hPa 0.6 l/m 3.0 km/h (1 Bft) W-NW 0.00 h 0 W/m 0.3 C 0.7 C
10.03.2006 22:00 1.7 C 94 % 1006.0 hPa 0.0 l/m 2.7 km/h (1 Bft) S-SO 0.00 h 0 W/m 0.8 C 0.9 C
10.03.2006 23:00 1.7 C 94 % 1005.8 hPa 0.3 l/m 0.2 km/h (0 Bft) N-NW 0.00 h 0 W/m 0.8 C 1.6 C
11.03.2006 00:00 1.4 C 95 % 1004.9 hPa 0.3 l/m 0.0 km/h (0 Bft) N 0.00 h 0 W/m 0.6 C 1.4 C
11.03.2006 01:00 1.1 C 95 % 1004.9 hPa 0.3 l/m 0.5 km/h (0 Bft) N 0.00 h 0 W/m 0.4 C 1.0 C
11.03.2006 02:00 1.0 C 97 % 1004.6 hPa 0.0 l/m 0.6 km/h (0 Bft) O-NO 0.00 h 0 W/m 0.5 C 0.9 C
11.03.2006 03:00 1.1 C 97 % 1004.0 hPa 0.0 l/m 0.0 km/h (0 Bft) N 0.00 h 0 W/m 0.6 C 1.1 C
11.03.2006 04:00 1.0 C 98 % 1004.2 hPa 0.0 l/m 0.0 km/h (0 Bft) N 0.00 h 0 W/m 0.6 C 1.0 C
11.03.2006 05:00 0.9 C 98 % 1005.1 hPa 0.0 l/m 1.5 km/h (1 Bft) W-NW 0.00 h 0 W/m 0.7 C 0.6 C
11.03.2006 06:00 1.1 C 98 % 1006.0 hPa 0.0 l/m 1.9 km/h (1 Bft) S-SO 0.00 h 2 W/m 0.9 C 0.7 C
11.03.2006 07:00 1.4 C 97 % 1007.1 hPa 0.0 l/m 10.2 km/h (2 Bft) NW 0.00 h 22 W/m 0.9 C -1.0 C
11.03.2006 08:00 1.8 C 86 % 1008.0 hPa 0.0 l/m 10.7 km/h (2 Bft) NW 0.00 h 60 W/m -0.2 C -0.8 C
11.03.2006 09:00 2.0 C 81 % 1009.1 hPa 0.0 l/m 22.9 km/h (4 Bft) NW 0.00 h 113 W/m -0.9 C -2.7 C
11.03.2006 10:00 2.9 C 72 % 1009.9 hPa 0.0 l/m 21.5 km/h (4 Bft) NW 0.30 h 325 W/m -1.7 C -1.7 C
11.03.2006 11:00 4.3 C 60 % 1009.7 hPa 0.0 l/m 14.0 km/h (3 Bft) NW 0.53 h 429 W/m -2.8 C 1.1 C
11.03.2006 12:00 3.9 C 63 % 1010.3 hPa 0.0 l/m 16.5 km/h (3 Bft) NW 0.00 h 173 W/m -2.5 C 0.3 C
11.03.2006 13:00 3.5 C 72 % 1010.7 hPa 0.0 l/m 13.9 km/h (3 Bft) NW 0.00 h 170 W/m -1.0 C 0.2 C
11.03.2006 14:00 3.9 C 70 % 1010.6 hPa 0.0 l/m 14.8 km/h (3 Bft) NW 0.00 h 148 W/m -0.9 C 0.6 C
11.03.2006 15:00 3.9 C 72 % 1010.7 hPa 0.0 l/m 15.5 km/h (3 Bft) NW 0.00 h 102 W/m -0.8 C 0.4 C
11.03.2006 16:00 3.4 C 81 % 1010.8 hPa 0.0 l/m 11.0 km/h (2 Bft) NW 0.00 h 82 W/m 0.4 C 0.6 C
11.03.2006 17:00 3.3 C 80 % 1010.9 hPa 0.3 l/m 15.2 km/h (3 Bft) NW 0.00 h 31 W/m 0.1 C -0.0 C
11.03.2006 18:00 2.9 C 84 % 1011.9 hPa 0.0 l/m 19.5 km/h (3 Bft) NW 0.00 h 7 W/m 0.5 C -1.3 C
11.03.2006 19:00 2.8 C 83 % 1011.9 hPa 0.0 l/m 17.9 km/h (3 Bft) NW 0.00 h 0 W/m 0.3 C -1.3 C
11.03.2006 20:00 2.7 C 83 % 1012.0 hPa 0.3 l/m 15.9 km/h (3 Bft) NW 0.00 h 0 W/m 0.1 C -1.1 C
11.03.2006 21:00 2.6 C 83 % 1012.2 hPa 0.3 l/m 30.0 km/h (5 Bft) NW 0.00 h 0 W/m 0.1 C -3.0 C
11.03.2006 22:00 1.4 C 73 % 1013.8 hPa 0.0 l/m 12.8 km/h (3 Bft) N-NW 0.00 h 0 W/m -3.0 C -1.8 C
11.03.2006 23:00 0.7 C 63 % 1015.1 hPa 0.0 l/m 21.4 km/h (4 Bft) N-NW 0.00 h 0 W/m -5.6 C -4.3 C
12.03.2006 00:00 -0.5 C 67 % 1016.2 hPa 0.0 l/m 24.3 km/h (4 Bft) NW 0.00 h 0 W/m -6.1 C -6.1 C
12.03.2006 01:00 -1.5 C 61 % 1017.7 hPa 0.0 l/m 4.3 km/h (1 Bft) NW 0.00 h 0 W/m -8.0 C -2.4 C
12.03.2006 02:00 -2.3 C 56 % 1018.9 hPa 0.0 l/m 0.3 km/h (0 Bft) NW 0.00 h 0 W/m -9.9 C -2.3 C
12.03.2006 03:00 -2.3 C 58 % 1019.1 hPa 0.0 l/m 2.6 km/h (1 Bft) NW 0.00 h 0 W/m -9.5 C -3.1 C
12.03.2006 04:00 -2.7 C 60 % 1020.0 hPa 0.0 l/m 0.2 km/h (0 Bft) NW 0.00 h 0 W/m -9.4 C -2.7 C
12.03.2006 05:00 -3.0 C 57 % 1021.0 hPa 0.0 l/m 0.2 km/h (0 Bft) NW 0.00 h 0 W/m -10.2 C -3.0 C
12.03.2006 06:00 -3.9 C 62 % 1022.3 hPa 0.0 l/m 3.9 km/h (1 Bft) NW 0.00 h 6 W/m -10.2 C -5.3 C
12.03.2006 07:00 -4.2 C 60 % 1023.5 hPa 0.0 l/m 4.1 km/h (1 Bft) NW 0.00 h 35 W/m -10.8 C -5.6 C
12.03.2006 08:00 -3.8 C 53 % 1024.4 hPa 0.0 l/m 9.4 km/h (2 Bft) NW 0.67 h 227 W/m -11.8 C -7.2 C
12.03.2006 09:00 -3.5 C 47 % 1025.2 hPa 0.0 l/m 12.4 km/h (3 Bft) NW 1.00 h 367 W/m -13.2 C -7.8 C
12.03.2006 10:00 -2.1 C 41 % 1025.8 hPa 0.0 l/m 8.9 km/h (2 Bft) NO 0.95 h 526 W/m -13.6 C -5.3 C
12.03.2006 11:00 -1.3 C 39 % 1026.4 hPa 0.0 l/m 7.2 km/h (2 Bft) N-NO 1.00 h 622 W/m -13.6 C -3.7 C
12.03.2006 12:00 -0.6 C 30 % 1027.0 hPa 0.0 l/m 6.3 km/h (2 Bft) NO 0.92 h 652 W/m -16.4 C -2.6 C
12.03.2006 13:00 -0.9 C 29 % 1027.0 hPa 0.0 l/m 5.3 km/h (1 Bft) N-NO 0.53 h 449 W/m -16.9 C -2.3 C
12.03.2006 14:00 -0.6 C 20 % 1027.0 hPa 0.0 l/m 7.0 km/h (2 Bft) N-NO 0.93 h 558 W/m -20.7 C -2.7 C
12.03.2006 15:00 -0.6 C 20 % 1027.0 hPa 0.0 l/m 6.4 km/h (2 Bft) NO 0.97 h 445 W/m -20.7 C -2.5 C
12.03.2006 16:00 -1.1 C 20 % 1028.0 hPa 0.0 l/m 6.8 km/h (2 Bft) NO 1.00 h 313 W/m -21.1 C -3.3 C
12.03.2006 17:00 -1.7 C 25 % 1028.4 hPa 0.0 l/m 6.4 km/h (2 Bft) NO 0.90 h 124 W/m -19.6 C -3.8 C
12.03.2006 18:00 -2.9 C 39 % 1029.6 hPa 0.0 l/m 1.5 km/h (1 Bft) N-NO 0.27 h 24 W/m -14.9 C -3.3 C
12.03.2006 19:00 -3.7 C 43 % 1030.6 hPa 0.0 l/m 1.9 km/h (1 Bft) NO 0.00 h 0 W/m -14.4 C -4.2 C
12.03.2006 20:00 -4.6 C 48 % 1030.8 hPa 0.0 l/m 0.5 km/h (0 Bft) N-NO 0.00 h 0 W/m -14.0 C -4.6 C
12.03.2006 21:00 -5.2 C 54 % 1031.4 hPa 0.0 l/m 0.6 km/h (0 Bft) O 0.00 h 0 W/m -13.0 C -5.3 C
12.03.2006 22:00 -5.8 C 56 % 1031.0 hPa 0.0 l/m 1.1 km/h (1 Bft) NO 0.00 h 0 W/m -13.0 C -6.1 C
12.03.2006 23:00 -5.9 C 58 % 1030.9 hPa 0.0 l/m 0.2 km/h (0 Bft) O-NO 0.00 h 0 W/m -12.7 C -5.9 C
Min-Datum _ 08.03.06 12.03.06 09.03.06 - 06.03.06 - - - 12.03.06 12.03.06
_ Min-Zeit 00:28 12:18 04:16 - 00:04 - - - 17:10 09:32
Minimum _ -6.3 C 20 % 1002.0 hPa - 0.0 km/h (0 Bft) - - - -21.5 C -10.3 C
Max-Datum _ 09.03.06 08.03.06 12.03.06 08.03.06 10.03.06 - 06.03.06 06.03.06 09.03.06 09.03.06
_ Max-Zeit 15:24 18:29 22:06 17:00 13:59 - 10:02 13:06 04:06 15:24
Maximum _ 10.7 C 100 % 1032.0 hPa 3.9 l/m 66.2 km/h
NW (8 Bft)
- 0.05 h 974 W/m 6.6 C 10.7 C
Durchschnitt _ 1.4 C 73 % 1014.2 hPa #43.6 l/m 9.7 km/h (2 Bft) NW #27:02 h 218 W/m -3.4 C -0.6 C
© Kaiko 2006